Time;durP1;ratioP1;P1;durP2;ratioP2;P2;SDS_P1;SDS_P2;PMS_P1;PMS_P2;Temp;Humidity;BMP_temperature;BMP_pressure;BME280_temperature;BME280_humidity;BME280_pressure;Samples;Min_cycle;Max_cycle;Signal;HPM_P1;HPM_P2
2021/06/18 00:01:50;;;;;;;8.27;6.07;;;;;;;18.52;88.72;95118.44;5094502;28;20433;-81
2021/06/18 00:04:17;;;;;;;6.17;5.03;;;;;;;18.48;88.65;95111.78;5113583;28;20808;-80
2021/06/18 00:06:44;;;;;;;6.40;5.40;;;;;;;18.43;88.45;95100.84;5113628;28;20444;-80
2021/06/18 00:09:11;;;;;;;5.73;5.23;;;;;;;18.38;88.80;95107.69;5113441;28;20501;-81
2021/06/18 00:11:39;;;;;;;5.80;5.30;;;;;;;18.27;88.92;95101.75;5113642;28;20443;-81
2021/06/18 00:14:06;;;;;;;6.23;5.63;;;;;;;18.26;89.27;95099.28;5113473;28;20476;-80
2021/06/18 00:16:34;;;;;;;6.60;5.83;;;;;;;18.26;89.22;95107.25;5113492;28;20910;-80
2021/06/18 00:19:02;;;;;;;8.03;6.17;;;;;;;18.18;89.71;95099.28;5113627;28;20991;-78
2021/06/18 00:21:30;;;;;;;5.50;5.10;;;;;;;18.14;89.92;95103.28;5113453;28;20480;-80
2021/06/18 00:23:57;;;;;;;7.63;6.93;;;;;;;18.07;90.13;95100.50;5113381;28;20558;-79
2021/06/18 00:26:24;;;;;;;6.73;6.03;;;;;;;18.08;90.63;95098.66;5111102;28;21090;-80
2021/06/18 00:28:52;;;;;;;6.80;5.63;;;;;;;18.11;90.27;95108.94;5113390;28;20544;-80
2021/06/18 00:31:19;;;;;;;7.50;6.80;;;;;;;18.16;90.71;95103.94;5113176;28;20787;-81
2021/06/18 00:33:46;;;;;;;7.67;6.97;;;;;;;18.20;90.54;95103.41;5113558;28;20442;-80
2021/06/18 00:36:14;;;;;;;6.80;6.10;;;;;;;18.22;90.38;95093.47;5113219;28;20472;-79
2021/06/18 00:38:41;;;;;;;8.00;6.70;;;;;;;18.21;90.29;95101.59;5113147;28;20833;-80
2021/06/18 00:41:09;;;;;;;7.00;6.30;;;;;;;18.20;90.47;95102.59;5113273;28;20509;-80
2021/06/18 00:43:36;;;;;;;8.60;7.47;;;;;;;18.16;90.40;95095.97;5113351;28;20459;-81
2021/06/18 00:46:04;;;;;;;7.17;6.47;;;;;;;18.16;90.29;95101.28;5113135;28;20443;-79
2021/06/18 00:48:32;;;;;;;7.07;6.37;;;;;;;18.15;90.36;95099.63;5113058;28;20479;-80
2021/06/18 00:51:00;;;;;;;6.70;5.73;;;;;;;18.04;89.69;95102.66;5113131;28;20440;-80
2021/06/18 00:53:29;;;;;;;5.77;5.20;;;;;;;17.97;90.07;95107.00;5113155;28;20825;-81
2021/06/18 00:55:56;;;;;;;7.23;6.53;;;;;;;17.95;90.20;95110.66;5077006;28;20430;-80
2021/06/18 00:58:24;;;;;;;6.93;5.90;;;;;;;17.97;89.94;95107.81;5112843;28;20477;-80
2021/06/18 01:00:51;;;;;;;10.80;6.07;;;;;;;17.88;89.70;95098.19;5115870;28;20446;-81
2021/06/18 01:03:18;;;;;;;7.93;7.23;;;;;;;17.83;89.49;95103.19;5116883;28;20444;-80
2021/06/18 01:05:45;;;;;;;6.97;6.27;;;;;;;17.85;90.11;95099.38;5117007;28;20518;-79
2021/06/18 01:08:20;;;;;;;7.13;6.40;;;;;;;17.87;90.31;95101.84;5116702;28;20525;-79
2021/06/18 01:10:53;;;;;;;7.70;6.50;;;;;;;17.84;89.80;95103.03;5116856;28;20481;-80
2021/06/18 01:13:52;;;;;;;8.00;6.50;;;;;;;17.82;90.11;95094.41;5080582;28;20501;-81
2021/06/18 01:16:26;;;;;;;7.90;7.10;;;;;;;17.80;90.18;95092.91;5053537;28;20480;-80
2021/06/18 01:18:59;;;;;;;7.67;6.97;;;;;;;17.75;90.32;95092.59;5053581;28;20504;-80
2021/06/18 01:21:32;;;;;;;11.13;6.80;;;;;;;17.71;89.85;95086.81;5053549;28;20490;-80
2021/06/18 01:24:19;;;;;;;9.03;7.57;;;;;;;17.65;89.81;95090.13;5053635;28;20449;-80
2021/06/18 01:27:14;;;;;;;7.13;6.10;;;;;;;17.63;90.36;95092.06;5053472;28;20450;-81
2021/06/18 01:29:45;;;;;;;6.03;5.30;;;;;;;17.65;90.92;95093.59;5020977;28;20545;-80
2021/06/18 01:32:19;;;;;;;6.70;6.00;;;;;;;17.67;90.36;95092.59;5053378;28;20519;-80
2021/06/18 01:34:47;;;;;;;6.03;5.43;;;;;;;17.67;89.86;95100.56;5053435;28;20827;-80
2021/06/18 01:37:19;;;;;;;8.20;5.23;;;;;;;17.60;89.94;95089.75;5053486;28;20769;-81
2021/06/18 01:39:48;;;;;;;5.80;5.17;;;;;;;17.57;89.66;95090.94;5053307;28;20483;-79
2021/06/18 01:42:17;;;;;;;8.03;6.67;;;;;;;17.52;89.63;95089.78;5053428;28;20941;-80
2021/06/18 01:44:46;;;;;;;5.90;5.40;;;;;;;17.43;90.15;95088.13;5053346;28;20445;-80
2021/06/18 01:47:16;;;;;;;6.57;5.73;;;;;;;17.37;90.29;95094.94;5053024;28;20472;-81
2021/06/18 01:49:44;;;;;;;7.70;5.67;;;;;;;17.34;90.37;95088.13;5052989;28;20602;-80
2021/06/18 01:52:14;;;;;;;7.83;5.80;;;;;;;17.36;90.53;95090.63;5054232;28;20456;-80
2021/06/18 01:54:45;;;;;;;6.03;5.50;;;;;;;17.36;90.38;95090.63;5116089;28;20434;-79
2021/06/18 01:57:14;;;;;;;5.53;5.03;;;;;;;17.34;90.07;95096.09;5115890;28;20519;-79
2021/06/18 01:59:43;;;;;;;7.93;5.00;;;;;;;17.34;90.13;95084.63;5115905;28;20475;-80
2021/06/18 02:02:12;;;;;;;7.60;5.20;;;;;;;17.33;89.95;95099.72;5115638;28;20465;-78
2021/06/18 02:04:41;;;;;;;6.65;5.75;;;;;;;17.43;89.70;95096.09;5095760;28;20484;-80
2021/06/18 02:07:09;;;;;;;6.60;5.47;;;;;;;17.41;88.79;95098.91;5079628;28;20211;-79
2021/06/18 02:09:39;;;;;;;6.03;5.53;;;;;;;17.37;89.17;95102.06;5115616;28;20499;-80
2021/06/18 02:12:08;;;;;;;7.67;5.90;;;;;;;17.37;90.15;95099.44;5114580;27;20523;-80
2021/06/18 02:14:36;;;;;;;6.77;5.23;;;;;;;17.39;89.57;95086.81;5115723;28;20447;-79
2021/06/18 02:17:06;;;;;;;6.40;5.80;;;;;;;17.40;89.85;95094.63;5115511;28;20494;-79
2021/06/18 02:19:36;;;;;;;9.80;6.53;;;;;;;17.39;89.67;95102.75;5115563;28;20802;-80
2021/06/18 02:22:06;;;;;;;6.00;5.50;;;;;;;17.40;89.66;95105.22;5096318;28;20493;-80
2021/06/18 02:24:35;;;;;;;10.63;6.30;;;;;;;17.16;90.09;95110.53;5115592;28;20443;-79
2021/06/18 02:27:03;;;;;;;8.03;7.23;;;;;;;17.10;91.36;95105.88;5115148;28;20500;-79
2021/06/18 02:29:31;;;;;;;15.00;10.23;;;;;;;16.71;96.18;95099.34;5079354;28;20538;-80
2021/06/18 02:32:01;;;;;;;10.40;9.40;;;;;;;16.56;97.84;95113.34;5115222;28;20448;-80
2021/06/18 02:34:28;;;;;;;15.97;10.60;;;;;;;16.64;97.94;95118.69;5115264;28;20525;-80
2021/06/18 02:36:56;;;;;;;24.70;13.10;;;;;;;16.48;98.93;95118.59;5115251;28;20474;-79
2021/06/18 02:39:24;;;;;;;17.73;13.40;;;;;;;16.20;100.00;95107.44;5079078;28;20835;-80
2021/06/18 02:41:51;;;;;;;15.40;12.23;;;;;;;16.18;100.00;95106.75;5079003;28;20454;-80
2021/06/18 02:44:18;;;;;;;16.73;13.03;;;;;;;16.40;100.00;95100.88;5114923;28;20472;-78
2021/06/18 02:46:50;;;;;;;13.87;12.37;;;;;;;16.53;100.00;95103.09;5115090;28;20559;-79
2021/06/18 02:49:23;;;;;;;23.40;13.20;;;;;;;16.65;100.00;95115.84;5114845;28;20488;-79
2021/06/18 02:51:56;;;;;;;15.37;11.20;;;;;;;16.69;100.00;95111.94;5114887;28;20473;-80
2021/06/18 02:54:32;;;;;;;15.90;12.30;;;;;;;16.76;99.87;95117.41;5114713;28;20450;-79
2021/06/18 02:57:03;;;;;;;15.57;12.77;;;;;;;16.86;99.41;95111.97;5114919;28;20507;-79
2021/06/18 02:59:35;;;;;;;13.90;11.40;;;;;;;17.01;99.71;95113.81;5095337;28;20498;-81
2021/06/18 03:02:05;;;;;;;19.20;13.27;;;;;;;17.11;98.67;95121.63;5078746;28;20999;-80
2021/06/18 03:04:37;;;;;;;18.20;12.90;;;;;;;17.02;98.75;95117.28;5114589;28;20522;-80
2021/06/18 03:07:08;;;;;;;18.23;13.73;;;;;;;16.98;98.97;95118.59;5114548;28;20842;-79
2021/06/18 03:09:42;;;;;;;19.30;13.73;;;;;;;16.90;100.00;95115.94;5112280;28;20544;-80
2021/06/18 03:12:12;;;;;;;19.90;13.60;;;;;;;16.89;99.89;95116.94;5114438;28;20493;-80
2021/06/18 03:14:43;;;;;;;16.17;13.27;;;;;;;16.91;100.00;95118.44;5095288;28;20764;-80
2021/06/18 03:17:13;;;;;;;17.70;14.17;;;;;;;16.97;100.00;95127.56;5095294;28;20433;-80
2021/06/18 03:19:44;;;;;;;18.80;14.23;;;;;;;17.07;100.00;95127.44;5095617;28;21125;-80
2021/06/18 03:22:12;;;;;;;23.63;13.80;;;;;;;17.15;99.15;95128.25;5114477;28;20907;-80
2021/06/18 03:24:43;;;;;;;16.50;13.00;;;;;;;17.26;99.25;95119.97;5114397;28;20477;-79
2021/06/18 03:27:11;;;;;;;15.90;13.70;;;;;;;17.37;98.75;95120.66;5114412;28;20842;-80
2021/06/18 03:29:39;;;;;;;17.17;14.20;;;;;;;17.44;98.80;95121.63;5114078;28;20519;-80
2021/06/18 03:32:08;;;;;;;23.43;14.30;;;;;;;17.51;97.81;95117.31;5114145;28;20478;-81
2021/06/18 03:34:36;;;;;;;20.00;15.10;;;;;;;17.59;97.78;95114.63;5114208;28;20873;-80
2021/06/18 03:37:04;;;;;;;19.27;15.37;;;;;;;17.65;97.72;95119.31;5114189;28;20451;-79
2021/06/18 03:39:31;;;;;;;20.13;14.73;;;;;;;17.72;97.13;95125.63;5113949;28;20522;-80
2021/06/18 03:42:01;;;;;;;21.93;16.70;;;;;;;17.79;96.93;95121.28;5114063;28;20531;-79
2021/06/18 03:44:29;;;;;;;18.57;14.17;;;;;;;17.81;96.35;95127.25;5114026;28;20442;-79
2021/06/18 03:46:57;;;;;;;18.50;14.03;;;;;;;17.83;95.72;95132.41;5114333;28;20492;-79
2021/06/18 03:49:25;;;;;;;16.80;12.23;;;;;;;17.81;95.04;95129.09;5113929;28;20577;-80
2021/06/18 03:51:53;;;;;;;12.57;8.90;;;;;;;17.81;93.12;95134.41;5113862;28;20440;-80
2021/06/18 03:54:22;;;;;;;11.50;7.93;;;;;;;17.82;92.96;95136.88;5113709;28;21184;-80
2021/06/18 03:56:50;;;;;;;11.43;6.90;;;;;;;17.83;93.26;95141.19;5113867;28;20447;-80
2021/06/18 03:59:19;;;;;;;6.50;5.93;;;;;;;18.26;96.10;95142.59;5114851;28;20450;-86
2021/06/18 04:01:52;;;;;;;9.70;5.80;;;;;;;19.08;90.75;95140.44;5114340;28;20529;-85
2021/06/18 04:04:21;;;;;;;9.50;5.67;;;;;;;19.89;86.35;95146.13;5114438;28;20504;-84
2021/06/18 04:06:48;;;;;;;5.60;5.10;;;;;;;20.58;80.43;95146.78;5114356;28;20504;-85
2021/06/18 04:09:16;;;;;;;5.77;5.20;;;;;;;21.18;74.58;95151.81;5114297;28;20486;-80
2021/06/18 04:11:45;;;;;;;4.60;4.10;;;;;;;21.29;72.99;95153.16;5114093;28;20512;-79
2021/06/18 04:14:13;;;;;;;4.10;3.70;;;;;;;21.31;71.63;95154.63;5113455;28;20443;-80
2021/06/18 04:16:41;;;;;;;4.60;4.20;;;;;;;21.38;71.34;95146.69;5113524;28;20914;-82
2021/06/18 04:19:09;;;;;;;6.03;4.23;;;;;;;21.30;70.34;95150.31;5114039;28;20492;-78
2021/06/18 04:21:41;;;;;;;5.17;4.70;;;;;;;21.06;70.67;95145.28;5106001;28;20468;-79
2021/06/18 04:24:08;;;;;;;4.83;4.33;;;;;;;20.68;72.14;95150.78;5113124;28;20445;-80
2021/06/18 04:26:36;;;;;;;4.73;4.10;;;;;;;20.39;72.94;95151.59;5113321;28;20472;-80
2021/06/18 04:29:03;;;;;;;7.50;4.00;;;;;;;20.18;73.64;95148.84;5113593;28;20551;-80
2021/06/18 04:31:30;;;;;;;4.17;3.87;;;;;;;19.97;75.08;95149.56;5113317;28;20447;-80
2021/06/18 04:33:58;;;;;;;7.07;4.37;;;;;;;19.86;76.12;95146.50;5112778;28;20443;-81
2021/06/18 04:36:25;;;;;;;5.73;5.23;;;;;;;19.79;76.67;95149.88;5112883;28;20474;-80
2021/06/18 04:38:52;;;;;;;6.63;5.03;;;;;;;19.68;77.54;95152.16;5113308;28;20443;-80
2021/06/18 04:41:19;;;;;;;5.37;4.83;;;;;;;19.55;78.34;95151.91;5113359;28;20441;-80
2021/06/18 04:43:46;;;;;;;6.03;4.93;;;;;;;19.42;78.96;95157.81;5112959;28;20908;-79
2021/06/18 04:46:13;;;;;;;5.30;4.80;;;;;;;19.33;79.57;95159.69;5112683;28;20496;-80
2021/06/18 04:48:40;;;;;;;5.27;4.77;;;;;;;19.21;79.75;95150.47;5112975;28;20201;-80
2021/06/18 04:51:09;;;;;;;5.20;4.23;;;;;;;19.08;79.98;95158.19;5113425;28;20484;-81
2021/06/18 04:53:36;;;;;;;5.10;4.70;;;;;;;19.02;80.57;95151.75;5112729;28;20441;-81
2021/06/18 04:56:04;;;;;;;5.53;4.60;;;;;;;18.95;81.44;95156.13;5113227;28;20453;-79
2021/06/18 04:58:32;;;;;;;7.83;5.23;;;;;;;18.98;81.95;95147.78;5113013;28;20445;-80
2021/06/18 05:00:59;;;;;;;6.33;4.77;;;;;;;19.06;82.42;95155.72;5112893;28;20441;-80
2021/06/18 05:03:26;;;;;;;5.17;4.70;;;;;;;19.15;82.22;95157.34;5112599;28;20484;-80
2021/06/18 05:05:53;;;;;;;7.50;4.27;;;;;;;19.26;81.14;95163.25;5113166;28;20454;-81
2021/06/18 05:08:21;;;;;;;5.40;5.00;;;;;;;19.41;81.00;95161.50;5112977;28;20476;-80
2021/06/18 05:10:48;;;;;;;6.70;5.10;;;;;;;19.58;80.32;95156.88;5076851;28;20479;-80
2021/06/18 05:13:15;;;;;;;4.87;4.47;;;;;;;19.74;79.37;95168.25;5076802;28;20470;-80
2021/06/18 05:15:42;;;;;;;5.23;4.80;;;;;;;19.94;79.57;95165.06;5112763;28;20850;-79
2021/06/18 05:18:09;;;;;;;4.37;3.87;;;;;;;20.07;78.96;95162.63;5113046;28;20498;-80
2021/06/18 05:20:37;;;;;;;4.80;4.40;;;;;;;20.19;79.81;95169.13;5112883;28;20475;-80
2021/06/18 05:23:04;;;;;;;5.17;4.50;;;;;;;20.31;80.68;95167.69;5112652;28;20446;-80
2021/06/18 05:25:32;;;;;;;7.50;5.23;;;;;;;20.38;79.72;95173.13;5110643;28;20956;-81
2021/06/18 05:27:59;;;;;;;6.10;5.50;;;;;;;20.47;79.65;95173.88;5112950;28;20478;-81
2021/06/18 05:30:26;;;;;;;5.70;5.20;;;;;;;20.52;79.00;95169.66;5112322;28;21026;-79
2021/06/18 05:32:53;;;;;;;6.10;5.50;;;;;;;20.64;79.62;95167.34;5112823;28;20444;-81
2021/06/18 05:35:21;;;;;;;7.00;6.30;;;;;;;20.78;79.16;95166.50;5112796;28;20500;-80
2021/06/18 05:37:50;;;;;;;6.73;6.10;;;;;;;20.95;78.85;95165.28;5112591;28;20491;-81
2021/06/18 05:40:17;;;;;;;7.30;6.70;;;;;;;21.10;78.51;95165.25;5112572;28;20451;-80
2021/06/18 05:42:46;;;;;;;7.10;6.37;;;;;;;21.34;78.77;95166.78;5112701;28;20444;-80
2021/06/18 05:45:14;;;;;;;7.57;6.87;;;;;;;21.59;77.06;95169.91;5112875;28;20445;-80
2021/06/18 05:47:41;;;;;;;7.70;6.90;;;;;;;21.90;76.90;95174.91;5115259;28;20498;-84
2021/06/18 05:50:09;;;;;;;8.90;6.90;;;;;;;22.24;75.73;95172.31;5116720;28;20816;-84
2021/06/18 05:52:36;;;;;;;8.97;7.17;;;;;;;22.66;73.80;95167.88;5117078;28;20449;-84
2021/06/18 05:55:04;;;;;;;8.43;7.03;;;;;;;23.06;70.79;95170.75;5116429;28;20496;-84
2021/06/18 05:57:31;;;;;;;6.67;6.00;;;;;;;23.30;69.43;95172.91;5116006;27;20499;-80
2021/06/18 05:59:59;;;;;;;6.57;6.07;;;;;;;23.54;68.24;95174.22;5116046;28;20567;-80
2021/06/18 06:02:26;;;;;;;10.37;5.97;;;;;;;23.58;68.46;95171.97;5116320;28;20445;-82
2021/06/18 06:04:53;;;;;;;7.93;6.67;;;;;;;23.67;67.15;95165.38;5116281;28;20445;-83
2021/06/18 06:07:21;;;;;;;7.27;6.67;;;;;;;23.91;66.79;95169.34;5115962;28;20451;-82
2021/06/18 06:09:48;;;;;;;8.80;6.23;;;;;;;24.15;67.44;95162.53;5115836;28;20951;-80
2021/06/18 06:12:15;;;;;;;6.83;6.20;;;;;;;24.34;65.70;95159.88;5115484;28;20548;-80
2021/06/18 06:14:42;;;;;;;10.73;6.30;;;;;;;24.51;63.94;95162.09;5115091;28;20446;-79
2021/06/18 06:17:11;;;;;;;10.00;6.57;;;;;;;24.58;64.64;95152.19;5115517;28;20441;-80
2021/06/18 06:19:38;;;;;;;10.03;6.63;;;;;;;24.59;63.83;95153.84;5115496;28;20495;-79
2021/06/18 06:22:05;;;;;;;7.97;6.60;;;;;;;24.65;63.69;95150.31;5115610;28;20480;-80
2021/06/18 06:24:32;;;;;;;8.23;6.53;;;;;;;24.60;62.83;95145.59;5115521;28;20449;-79
2021/06/18 06:26:59;;;;;;;8.50;6.10;;;;;;;24.50;62.87;95141.66;5115676;28;20503;-79
2021/06/18 06:29:26;;;;;;;9.50;7.27;;;;;;;24.46;62.81;95149.31;5115297;28;20454;-78
2021/06/18 06:31:53;;;;;;;10.17;6.10;;;;;;;24.47;62.86;95139.41;5096438;28;20441;-79
2021/06/18 06:34:21;;;;;;;9.27;6.23;;;;;;;24.61;63.47;95136.50;5116085;28;20887;-79
2021/06/18 06:36:48;;;;;;;8.10;6.80;;;;;;;24.60;62.10;95134.03;5115305;28;20446;-79
2021/06/18 06:39:15;;;;;;;8.13;6.63;;;;;;;24.66;62.69;95138.53;5114847;28;20447;-79
2021/06/18 06:41:42;;;;;;;7.47;6.77;;;;;;;24.74;63.67;95129.44;5115202;27;20450;-79
2021/06/18 06:44:09;;;;;;;6.27;5.67;;;;;;;24.80;63.20;95136.63;5115256;28;20499;-79
2021/06/18 06:46:36;;;;;;;7.53;6.23;;;;;;;24.79;64.30;95129.63;5115112;28;20442;-80
2021/06/18 06:49:04;;;;;;;11.57;8.70;;;;;;;24.78;62.95;95136.03;5114851;28;20933;-78
2021/06/18 06:51:32;;;;;;;7.17;6.57;;;;;;;24.86;62.88;95133.09;5114822;28;20485;-79
2021/06/18 06:53:59;;;;;;;8.20;7.40;;;;;;;24.99;62.25;95122.34;5078649;28;20477;-79
2021/06/18 06:56:26;;;;;;;10.57;6.97;;;;;;;25.16;62.70;95120.84;5087335;27;21013;-79
2021/06/18 06:58:55;;;;;;;9.50;7.00;;;;;;;25.31;62.01;95121.34;5134953;27;20839;-79
2021/06/18 07:01:22;;;;;;;6.47;5.80;;;;;;;25.16;62.63;95120.00;5135350;27;20472;-79
2021/06/18 07:03:49;;;;;;;15.30;7.90;;;;;;;24.95;62.98;95111.19;5135312;27;20486;-79
2021/06/18 07:06:16;;;;;;;12.00;6.73;;;;;;;24.87;61.65;95106.06;5135229;27;20484;-79
2021/06/18 07:08:44;;;;;;;13.70;8.00;;;;;;;25.06;62.87;95112.41;5135130;27;20453;-80
2021/06/18 07:11:11;;;;;;;14.37;10.50;;;;;;;25.34;61.58;95109.34;5098654;27;20477;-79
2021/06/18 07:13:38;;;;;;;9.13;8.23;;;;;;;25.66;62.63;95104.78;5134609;27;21044;-79
2021/06/18 07:16:06;;;;;;;11.67;7.50;;;;;;;25.99;62.04;95103.72;5134942;27;20545;-80
2021/06/18 07:18:35;;;;;;;9.67;7.03;;;;;;;26.12;58.54;95103.63;5134646;27;20477;-79
2021/06/18 07:21:02;;;;;;;11.07;7.97;;;;;;;26.08;60.25;95095.19;5134866;27;20525;-79
2021/06/18 07:23:29;;;;;;;14.47;8.17;;;;;;;26.08;60.05;95086.28;5134610;27;20437;-79
2021/06/18 07:25:58;;;;;;;15.57;7.83;;;;;;;25.88;59.30;95089.16;5134677;27;20486;-79
2021/06/18 07:28:25;;;;;;;9.70;8.80;;;;;;;25.88;60.20;95095.34;5098492;27;20776;-79
2021/06/18 07:30:52;;;;;;;9.80;7.70;;;;;;;25.88;62.74;95081.91;5098139;27;20514;-79
2021/06/18 07:33:19;;;;;;;10.90;7.50;;;;;;;25.72;61.50;95082.44;5134445;27;20538;-79
2021/06/18 07:35:46;;;;;;;15.13;8.17;;;;;;;25.58;61.54;95073.63;5134936;27;20485;-80
2021/06/18 07:38:13;;;;;;;9.57;7.70;;;;;;;25.35;62.05;95068.00;5134612;27;20851;-80
2021/06/18 07:40:41;;;;;;;10.60;8.07;;;;;;;25.25;63.58;95070.34;5134485;27;20484;-80
2021/06/18 07:43:10;;;;;;;9.53;8.53;;;;;;;25.13;65.67;95070.19;5097886;27;21127;-80
2021/06/18 07:45:37;;;;;;;17.27;9.60;;;;;;;25.08;64.77;95069.22;5134590;27;20453;-80
2021/06/18 07:48:09;;;;;;;14.00;10.50;;;;;;;24.95;63.25;95070.09;5134585;27;20851;-80
2021/06/18 07:50:36;;;;;;;14.33;10.20;;;;;;;24.85;64.43;95067.00;5134300;27;20490;-79
2021/06/18 07:53:04;;;;;;;15.20;11.77;;;;;;;24.82;65.79;95064.75;5134429;27;20913;-79
2021/06/18 07:55:31;;;;;;;12.67;9.10;;;;;;;24.70;66.32;95070.81;5134459;27;20442;-79
2021/06/18 07:57:58;;;;;;;17.57;9.40;;;;;;;24.62;67.41;95063.00;5115054;27;20446;-80
2021/06/18 08:00:27;;;;;;;17.90;10.50;;;;;;;24.74;68.98;95062.34;5133984;27;20445;-80
2021/06/18 08:02:54;;;;;;;11.30;9.00;;;;;;;24.98;69.76;95061.59;5134295;27;20501;-79
2021/06/18 08:05:21;;;;;;;12.67;9.17;;;;;;;24.94;66.36;95065.75;5133897;27;20786;-79
2021/06/18 08:07:49;;;;;;;12.63;11.13;;;;;;;24.81;67.21;95065.81;5098001;27;20474;-80
2021/06/18 08:10:18;;;;;;;15.73;11.23;;;;;;;24.78;68.47;95068.91;5133019;27;20489;-80
2021/06/18 08:12:46;;;;;;;16.40;11.97;;;;;;;24.42;69.32;95072.97;5133723;27;20963;-80
2021/06/18 08:15:14;;;;;;;16.40;12.30;;;;;;;24.54;70.43;95067.75;5097953;27;20461;-80
2021/06/18 08:17:43;;;;;;;22.30;15.23;;;;;;;24.87;69.86;95063.09;5133863;27;20939;-79
2021/06/18 08:20:12;;;;;;;22.83;13.40;;;;;;;24.91;69.06;95061.63;5134356;27;20445;-80
2021/06/18 08:22:39;;;;;;;21.63;13.57;;;;;;;24.93;71.62;95058.75;5114528;27;20455;-81
2021/06/18 08:25:07;;;;;;;15.63;13.03;;;;;;;24.78;69.12;95056.31;5133868;27;20445;-79
2021/06/18 08:27:34;;;;;;;16.90;13.70;;;;;;;24.87;69.28;95052.38;5133951;27;20811;-80
2021/06/18 08:30:01;;;;;;;22.70;13.07;;;;;;;24.57;69.32;95049.38;5133094;27;20449;-79
2021/06/18 08:32:28;;;;;;;14.57;12.83;;;;;;;24.68;71.70;95061.31;5097261;28;20481;-78
2021/06/18 08:34:57;;;;;;;20.67;14.83;;;;;;;24.03;73.28;95053.25;5097544;28;20442;-79
2021/06/18 08:37:24;;;;;;;15.83;14.13;;;;;;;23.94;73.46;95061.69;5133703;28;20479;-78
2021/06/18 08:39:51;;;;;;;27.00;14.40;;;;;;;23.91;72.75;95057.56;5133910;27;20886;-79
2021/06/18 08:42:19;;;;;;;18.27;15.27;;;;;;;23.60;72.11;95052.03;5133524;28;20475;-80
2021/06/18 08:44:46;;;;;;;17.97;15.07;;;;;;;23.67;75.00;95053.66;5133856;27;20444;-80
2021/06/18 08:47:14;;;;;;;24.40;13.97;;;;;;;23.75;72.02;95053.47;5133410;28;20446;-79
2021/06/18 08:49:41;;;;;;;26.37;14.33;;;;;;;23.52;73.20;95047.69;5133322;28;20468;-79
2021/06/18 08:52:10;;;;;;;19.37;13.37;;;;;;;23.59;73.77;95043.16;5133410;28;20471;-79
2021/06/18 08:54:44;;;;;;;18.13;12.57;;;;;;;23.59;74.63;95040.50;5133448;28;20493;-79
2021/06/18 08:57:13;;;;;;;18.03;12.83;;;;;;;23.52;72.57;95036.13;5118132;28;20455;-79
2021/06/18 08:59:41;;;;;;;12.83;11.53;;;;;;;23.72;71.88;95037.81;5112943;28;20477;-80
2021/06/18 09:02:08;;;;;;;20.07;13.00;;;;;;;23.78;72.70;95038.84;5113160;28;20489;-79
2021/06/18 09:05:09;;;;;;;15.50;12.93;;;;;;;23.93;70.35;95043.97;5112698;28;20454;-79
2021/06/18 09:07:59;;;;;;;15.80;11.70;;;;;;;23.96;69.57;95033.63;5113054;28;20460;-79
2021/06/18 09:10:34;;;;;;;13.10;11.10;;;;;;;23.91;71.37;95033.44;5049522;28;20451;-79
2021/06/18 09:13:09;;;;;;;20.80;12.33;;;;;;;24.10;69.56;95032.59;5049628;28;20943;-79
2021/06/18 09:15:38;;;;;;;15.93;11.37;;;;;;;24.23;69.24;95031.72;5049841;28;20456;-78
2021/06/18 09:18:25;;;;;;;14.90;10.53;;;;;;;24.26;67.58;95035.84;5049949;28;20506;-80
2021/06/18 09:20:52;;;;;;;17.77;10.30;;;;;;;24.31;68.64;95028.03;5050676;28;20944;-79
2021/06/18 09:23:26;;;;;;;16.27;9.60;;;;;;;23.93;68.54;95025.19;5053654;28;20441;-79
2021/06/18 09:26:25;;;;;;;12.47;10.30;;;;;;;23.89;66.93;95030.16;5053366;28;20451;-80
2021/06/18 09:29:07;;;;;;;16.77;10.07;;;;;;;24.08;67.62;95031.97;5053525;28;20443;-79
2021/06/18 09:31:36;;;;;;;13.90;9.93;;;;;;;24.14;68.25;95033.00;5053343;28;21083;-79
2021/06/18 09:34:05;;;;;;;13.20;9.07;;;;;;;24.00;69.15;95023.34;5053586;28;20586;-80
2021/06/18 09:36:32;;;;;;;15.13;8.80;;;;;;;23.99;68.76;95025.19;5053375;28;20585;-81
2021/06/18 09:39:02;;;;;;;9.27;7.93;;;;;;;23.79;68.38;95021.72;5053459;28;20514;-80
2021/06/18 09:41:31;;;;;;;7.73;6.77;;;;;;;23.74;67.07;95014.31;5053253;28;20499;-79
2021/06/18 09:43:59;;;;;;;10.10;9.10;;;;;;;23.73;66.02;95023.38;5053298;28;20444;-79
2021/06/18 09:46:50;;;;;;;20.43;9.50;;;;;;;23.59;66.94;95021.72;5054055;28;20994;-79
2021/06/18 09:49:40;;;;;;;9.20;7.83;;;;;;;23.82;70.05;95015.94;5096970;28;21178;-79
2021/06/18 09:52:09;;;;;;;12.30;9.23;;;;;;;23.77;68.47;95015.75;5116405;28;20824;-80
2021/06/18 09:54:42;;;;;;;12.77;8.63;;;;;;;23.59;69.31;95008.34;5115911;28;20452;-79
2021/06/18 09:57:12;;;;;;;11.23;7.33;;;;;;;23.77;68.45;95003.19;5113620;28;20447;-79
2021/06/18 09:59:50;;;;;;;8.60;7.23;;;;;;;23.97;68.25;95005.78;5116155;28;20444;-79
2021/06/18 10:02:18;;;;;;;11.00;7.40;;;;;;;24.08;66.33;95012.38;5116294;28;20937;-81
2021/06/18 10:04:48;;;;;;;14.23;8.00;;;;;;;24.25;65.33;95002.00;5115929;28;20944;-79
2021/06/18 10:07:15;;;;;;;11.93;8.20;;;;;;;24.28;65.84;95006.97;5115660;28;20457;-79
2021/06/18 10:09:45;;;;;;;16.00;9.03;;;;;;;24.33;68.33;94996.47;5116104;28;20501;-81
2021/06/18 10:12:12;;;;;;;10.97;7.60;;;;;;;24.27;68.21;95000.75;5115781;28;20530;-79
2021/06/18 10:14:41;;;;;;;12.60;7.30;;;;;;;24.34;65.78;95001.63;5115452;28;20444;-80
2021/06/18 10:17:08;;;;;;;12.33;7.10;;;;;;;24.40;65.30;94997.25;5115416;28;20447;-80
2021/06/18 10:19:35;;;;;;;15.97;7.00;;;;;;;24.47;68.12;94984.63;5116144;28;20447;-79
2021/06/18 10:22:09;;;;;;;14.37;6.47;;;;;;;24.60;68.10;94989.13;5115412;28;20477;-79
2021/06/18 10:24:40;;;;;;;7.73;7.03;;;;;;;24.74;65.87;94992.53;5115695;28;20785;-79
2021/06/18 10:27:10;;;;;;;7.87;5.97;;;;;;;24.75;63.34;94980.78;5115828;28;20450;-80
2021/06/18 10:29:39;;;;;;;6.40;5.90;;;;;;;24.80;64.44;94980.94;5115500;28;20798;-80
2021/06/18 10:32:31;;;;;;;8.50;6.77;;;;;;;24.76;62.10;94987.78;5095183;28;20514;-80
2021/06/18 10:35:00;;;;;;;12.80;6.40;;;;;;;24.73;63.56;94985.53;5052397;28;20453;-81
2021/06/18 10:37:28;;;;;;;8.90;6.60;;;;;;;24.82;64.61;94982.38;5052380;28;20534;-80
2021/06/18 10:39:57;;;;;;;11.50;7.40;;;;;;;24.99;65.43;94977.34;5052523;28;20453;-81
2021/06/18 10:42:26;;;;;;;11.80;8.20;;;;;;;24.93;65.97;94978.19;5052355;28;20465;-82
2021/06/18 10:44:54;;;;;;;6.20;5.60;;;;;;;24.79;60.30;94982.81;5052072;28;20441;-81
2021/06/18 10:48:00;;;;;;;9.37;6.27;;;;;;;24.82;61.67;94977.00;5052061;28;20478;-80
2021/06/18 10:50:50;;;;;;;13.43;6.53;;;;;;;24.92;64.21;94973.88;5052135;28;20461;-79
2021/06/18 10:53:22;;;;;;;11.47;5.83;;;;;;;25.02;63.78;94972.38;5052127;28;20488;-79
2021/06/18 10:59:15;;;;;;;5.63;5.13;;;;;;;24.97;63.81;94964.13;5052284;28;20499;-81
2021/06/18 11:01:42;;;;;;;5.40;4.90;;;;;;;24.99;62.08;94972.81;5052084;28;21017;-82
2021/06/18 11:04:09;;;;;;;5.40;4.90;;;;;;;24.80;63.08;94962.97;5051757;28;20574;-79
2021/06/18 11:06:44;;;;;;;6.33;5.07;;;;;;;24.52;61.88;94962.50;5052086;28;20480;-78
2021/06/18 11:09:12;;;;;;;5.73;5.23;;;;;;;24.35;63.18;94957.66;5051607;28;20498;-78
2021/06/18 11:11:39;;;;;;;14.67;4.70;;;;;;;24.37;61.43;94952.06;5083866;28;20568;-77
2021/06/18 11:14:07;;;;;;;6.33;4.50;;;;;;;24.58;62.39;94959.00;5114305;28;20561;-78
2021/06/18 11:16:38;;;;;;;4.90;4.50;;;;;;;24.66;61.98;94959.56;5114870;28;20862;-78
2021/06/18 11:19:24;;;;;;;5.07;4.57;;;;;;;24.81;60.89;94953.06;5114488;28;20492;-78
2021/06/18 11:21:51;;;;;;;7.33;5.40;;;;;;;24.79;60.49;94952.44;5114633;28;20482;-78
2021/06/18 11:24:34;;;;;;;5.93;4.50;;;;;;;24.89;60.54;94947.44;5114122;28;20537;-78
2021/06/18 11:27:22;;;;;;;5.20;4.80;;;;;;;24.85;57.91;94938.16;5114119;28;20454;-78
2021/06/18 11:29:49;;;;;;;5.63;4.60;;;;;;;24.87;58.67;94936.94;5114335;28;20446;-78
2021/06/18 11:32:45;;;;;;;5.27;4.80;;;;;;;25.00;59.89;94936.84;5078177;28;20573;-78
2021/06/18 11:35:39;;;;;;;5.30;4.80;;;;;;;25.13;60.39;94933.22;5113923;28;21342;-79
2021/06/18 11:38:11;;;;;;;6.90;4.80;;;;;;;25.22;61.64;94933.81;5050922;28;21038;-78
2021/06/18 11:40:38;;;;;;;5.40;5.00;;;;;;;25.26;59.73;94935.81;5051033;28;20488;-80
2021/06/18 11:43:06;;;;;;;5.97;5.37;;;;;;;25.21;60.04;94937.53;5050844;28;20503;-78